Latest Weather Observations for Victoria Portable AWS I (CFA)

IDV60801

Issued at 8:32 pm EST Sunday 26 June 2022 (issued every 10 minutes, with the page automatically refreshed every 10 minutes)

About weather observations | Map of weather stations | Latest weather observations for VIC | Other Formats
Station Details ID: 250138 Name: PORTABLE VIC AWS 9 (CFA) Lat: -37.40 Lon: 144.39 Height: 0.0 m

Portable automatic weather stations (PAWS) are operated by other organisations, such as Fire and Emergency Services, and are included here by agreement. Portable stations may be deployed to a location for a short period and their location may be subject to change without notice. Wind observations from these stations are provided from heights of either three (3) or ten (10) metres above ground level (AGL).

Data from the previous 72 hours. | See also: Recent months for locations in Victoria
Date/Time
EST
Temp
°C
App
Temp
°C
Dew
Point
°C
Rel
Hum
%
Delta-T
°C
Wind Press
QNH
hPa
Press
MSL
hPa
Rain since
9am
mm
Dir  Spd
km/h
Gust
km/h
Spd
kts
Gust
kts
26/08:20pm 4.3 -0.8 3.2 93 - S 19 24 10 13 941.9 - 0.8
26/08:10pm 4.3 0.0 3.3 93 - SSW 15 17 8 9 941.8 - 0.8
26/08:00pm 4.4 -0.7 3.3 93 - S 19 22 10 12 941.6 - 0.8
26/07:50pm 4.4 -0.3 3.1 91 - SSW 17 20 9 11 941.6 - 0.8
26/07:40pm 4.3 0.0 3.2 93 - SSW 15 19 8 10 941.6 - 0.8
26/07:30pm 4.2 -0.1 3.3 94 - SSW 15 20 8 11 941.4 - 0.8
26/07:20pm 4.2 -0.1 3.4 94 - SSW 15 17 8 9 941.3 - 0.8
26/07:10pm 4.2 -0.1 3.3 94 - S 15 19 8 10 941.1 - 0.8
26/07:00pm 4.2 -0.9 3.2 93 - SSW 19 20 10 11 941.2 - 0.8
26/06:50pm 4.3 -0.8 3.2 93 - SSW 19 22 10 12 941.0 - 0.8
26/06:40pm 4.2 -0.5 3.1 92 - SSW 17 20 9 11 940.9 - 0.8
26/06:10pm 4.4 -0.9 3.2 92 - SSW 20 24 11 13 940.6 - 0.8
26/06:00pm 4.4 -0.9 3.1 91 - SSW 20 26 11 14 940.5 - 0.8
26/05:50pm 4.5 -1.2 3.1 91 - SSW 22 26 12 14 940.4 - 0.8
26/05:40pm 4.6 -0.6 3.3 91 - SSW 20 24 11 13 940.3 - 0.8
26/05:30pm 4.7 0.1 3.6 93 - SSW 17 19 9 10 940.2 - 0.8
26/05:20pm 4.7 -0.4 3.3 91 - SSW 19 20 10 11 940.2 - 0.8
26/05:10pm 4.8 -0.3 3.0 88 - SSW 19 20 10 11 940.1 - 0.8
26/05:00pm 5.1 0.0 2.8 85 - SSW 19 24 10 13 940.1 - 0.8
26/04:50pm 5.4 0.3 3.1 85 - SSW 19 24 10 13 940.0 - 0.8
26/04:30pm 6.3 1.5 4.5 88 - SSW 19 22 10 12 939.8 - 0.8
26/04:20pm 6.6 2.5 4.5 86 - SSW 15 22 8 12 939.5 - 0.8
26/04:10pm 6.9 4.0 4.5 85 - SW 9 13 5 7 939.3 - 0.8
26/04:00pm 7.1 3.0 4.3 82 - SW 15 19 8 10 939.2 - 0.8
26/03:50pm 7.1 3.4 4.3 82 - SW 13 19 7 10 939.0 - 0.8
26/03:40pm 7.5 4.3 5.0 84 - SW 11 13 6 7 938.9 - 0.8
26/03:30pm 6.9 2.8 4.5 85 - SW 15 22 8 12 938.9 - 0.8
26/03:20pm 6.8 2.7 4.4 85 - SW 15 17 8 9 938.9 - 0.8
26/03:10pm 6.6 3.3 4.7 88 - WSW 11 15 6 8 938.8 - 0.8
26/03:00pm 6.5 2.5 5.1 91 - SW 15 19 8 10 938.8 - 0.8
26/02:50pm 6.8 2.9 5.4 91 - SW 15 24 8 13 938.7 - 0.8
26/02:40pm 7.2 4.5 5.7 90 - SW 9 13 5 7 938.6 - 0.8
26/02:30pm 7.0 3.5 5.6 91 - SW 13 17 7 9 938.7 - 0.8
26/02:20pm 7.2 3.3 5.4 88 - SW 15 17 8 9 938.6 - 0.8
26/02:10pm 7.6 4.2 5.8 88 - SW 13 17 7 9 938.5 - 0.8
26/02:00pm 7.1 4.1 5.8 91 - SW 11 15 6 8 938.6 - 0.8
26/01:50pm 6.8 3.3 5.4 91 - SW 13 19 7 10 938.8 - 0.8
26/01:40pm 7.1 3.3 5.9 92 - SW 15 17 8 9 938.8 - 0.8
26/01:30pm 7.1 3.3 5.9 92 - SSW 15 17 8 9 938.7 - 0.8
26/01:20pm 7.0 3.2 5.6 91 - SW 15 22 8 12 938.7 - 0.8
26/01:10pm 7.2 5.0 6.3 94 - W 7 9 4 5 938.7 - 0.8
26/12:50pm 7.3 4.3 6.0 91 - WNW 11 15 6 8 938.7 - 0.4
26/12:40pm 7.3 3.9 6.1 92 - WNW 13 17 7 9 938.8 - 0.4
26/12:30pm 7.4 4.5 6.3 93 - WNW 11 13 6 7 938.9 - 0.4
26/12:20pm 7.4 4.5 6.5 94 - NW 11 15 6 8 939.0 - 0.4
26/12:10pm 7.3 4.0 6.2 93 - NW 13 15 7 8 939.1 - 0.4
26/12:00pm 7.3 4.0 6.3 93 - WNW 13 17 7 9 939.1 - 0.4
26/11:50am 7.1 3.7 6.1 93 - WNW 13 19 7 10 939.2 - 0.4
26/11:40am 7.1 3.8 6.4 95 - WNW 13 20 7 11 939.2 - 0.4
26/11:30am 6.9 3.9 6.2 95 - NW 11 15 6 8 939.2 - 0.4
26/11:20am 6.9 3.5 5.9 93 - NW 13 15 7 8 939.2 - 0.4
26/11:10am 6.9 3.6 6.2 95 - NW 13 15 7 8 939.2 - 0.4
26/11:00am 6.8 3.4 6.0 95 - NW 13 19 7 10 939.3 - 0.4
26/10:50am 6.8 3.8 6.1 95 - NNW 11 15 6 8 939.2 - 0.4
26/10:40am 7.0 4.0 6.2 95 - NNW 11 15 6 8 939.2 - 0.4
26/10:30am 6.9 3.9 6.2 95 - NW 11 15 6 8 939.3 - 0.4
26/10:20am 6.8 3.8 6.1 95 - NW 11 17 6 9 939.4 - 0.4
26/10:10am 6.6 3.2 5.9 95 - NW 13 17 7 9 939.3 - 0.4
26/10:00am 6.5 3.5 5.8 95 - NW 11 13 6 7 939.3 - 0.4
26/09:50am 6.5 3.8 5.8 95 - NW 9 13 5 7 939.2 - 0.4
26/09:40am 6.6 3.5 5.7 94 - WNW 11 13 6 7 939.2 - 0.2
26/09:30am 6.6 3.1 5.6 93 - W 13 17 7 9 939.2 - 0.0
26/09:20am 6.6 2.8 5.6 93 - WNW 15 19 8 10 939.1 - 0.0
26/09:10am 6.6 3.1 5.6 93 - WNW 13 15 7 8 938.9 - 0.0
26/09:00am 6.5 3.8 5.8 95 - WNW 9 11 5 6 938.8 - 2.8
26/08:50am 6.5 4.2 5.8 95 - WNW 7 11 4 6 938.7 - 2.8
26/08:40am 6.4 3.8 5.9 97 - WNW 9 11 5 6 938.7 - 2.8
26/08:30am 6.3 4.1 6.0 98 - NW 7 11 4 6 938.7 - 2.8
26/08:10am 6.2 4.1 5.8 97 - NW 6 9 3 5 938.5 - 2.8
26/08:00am 6.1 4.0 5.8 98 - NNW 6 7 3 4 938.4 - 2.8
26/07:50am 6.1 4.0 5.7 97 - NNW 6 7 3 4 938.4 - 2.8
26/07:40am 6.2 4.1 5.6 96 - NNW 6 7 3 4 938.4 - 2.8
26/07:30am 6.2 4.0 5.5 95 - NNW 6 6 3 3 938.3 - 2.8
26/07:20am 6.2 3.8 5.4 95 - NNW 7 9 4 5 938.2 - 2.8
26/07:10am 6.3 3.9 5.4 94 - NW 7 7 4 4 938.2 - 2.8
26/07:00am 6.3 3.1 5.3 93 - WNW 11 13 6 7 938.2 - 2.8
26/06:50am 6.2 3.0 5.3 94 - WNW 11 13 6 7 938.0 - 2.8
26/06:40am 6.4 3.3 5.5 94 - WNW 11 13 6 7 938.0 - 2.8
26/06:30am 6.5 3.4 5.7 95 - WNW 11 17 6 9 937.8 - 2.8
26/06:20am 6.6 3.6 5.8 95 - WNW 11 17 6 9 937.7 - 2.8
26/06:00am 6.7 3.2 5.6 93 - WNW 13 20 7 11 937.4 - 2.8
26/05:50am 6.6 3.2 5.9 95 - WNW 13 17 7 9 937.2 - 2.8
26/05:40am 6.8 3.1 6.1 95 - WNW 15 19 8 10 937.1 - 2.8
26/05:30am 6.8 3.1 6.2 96 - W 15 20 8 11 937.1 - 2.8
26/05:20am 6.8 3.1 6.5 98 - WNW 15 22 8 12 937.0 - 2.8
26/05:10am 6.8 3.9 6.5 98 - NW 11 15 6 8 936.9 - 2.8
26/04:50am 6.9 4.0 6.4 97 - NW 11 15 6 8 936.9 - 2.8
26/04:40am 6.9 3.6 6.4 97 - WNW 13 17 7 9 936.8 - 2.8
26/04:30am 6.9 3.2 6.5 97 - WNW 15 20 8 11 936.9 - 2.8
26/04:20am 6.9 3.6 6.6 98 - NW 13 19 7 10 936.8 - 2.6
26/04:10am 6.9 3.6 6.6 98 - NW 13 17 7 9 936.8 - 2.6
26/04:00am 6.9 3.7 6.7 99 - NW 13 13 7 7 936.6 - 2.6
26/03:50am 7.0 3.4 6.7 98 - NW 15 19 8 10 936.5 - 2.6
26/03:40am 7.0 3.0 6.7 98 - NW 17 20 9 11 936.5 - 2.4
26/03:30am 7.1 3.5 6.6 97 - NW 15 28 8 15 936.5 - 2.2
26/03:20am 7.1 3.5 6.6 97 - NW 15 22 8 12 936.6 - 2.2
26/03:10am 7.1 3.4 6.4 95 - NW 15 24 8 13 936.7 - 2.2
26/03:00am 7.1 3.4 6.5 96 - NW 15 22 8 12 936.7 - 2.2
26/02:50am 7.1 2.7 6.6 97 - NW 19 22 10 12 936.6 - 2.2
26/02:40am 7.1 3.5 6.7 97 - NW 15 22 8 12 936.6 - 2.2
26/02:30am 7.1 2.7 6.7 97 - NW 19 22 10 12 936.6 - 2.2
26/02:20am 7.1 3.5 6.7 97 - NW 15 19 8 10 936.7 - 2.2
26/02:10am 7.1 3.9 6.7 97 - NW 13 17 7 9 936.8 - 2.2
26/02:00am 7.1 3.5 6.6 97 - NW 15 19 8 10 936.8 - 2.2
26/01:50am 7.1 3.5 6.7 97 - NW 15 20 8 11 936.8 - 2.2
26/01:40am 7.1 3.9 6.7 97 - NW 13 19 7 10 936.8 - 2.2
26/01:30am 7.1 2.7 6.6 97 - NW 19 26 10 14 936.8 - 2.2
26/01:20am 7.1 2.5 6.7 97 - NW 20 24 11 13 936.8 - 2.2
26/01:10am 7.1 3.1 6.8 98 - NW 17 22 9 12 936.8 - 2.2
26/01:00am 7.1 3.1 6.8 98 - NW 17 22 9 12 936.8 - 2.0
26/12:40am 7.0 3.0 6.8 99 - NW 17 20 9 11 936.8 - 1.8
26/12:30am 7.0 3.4 6.7 98 - NW 15 19 8 10 936.8 - 1.8
26/12:20am 7.0 3.4 6.7 98 - NW 15 19 8 10 936.9 - 1.6
26/12:10am 6.9 2.9 6.6 98 - NNW 17 19 9 10 936.9 - 1.6
26/12:00am 6.9 3.6 6.5 97 - NNW 13 19 7 10 937.0 - 1.6
 
Date/Time
EST
Temp
°C
App
Temp
°C
Dew
Point
°C
Rel
Hum
%
Delta-T
°C
Wind Press
QNH
hPa
Press
MSL
hPa
Rain since
9am
mm
Dir  Spd
km/h
Gust
km/h
Spd
kts
Gust
kts
25/11:50pm 6.8 3.1 6.5 98 - NNW 15 20 8 11 937.0 - 1.6
25/11:40pm 6.8 3.5 6.5 98 - NNW 13 17 7 9 937.0 - 1.4
25/11:30pm 6.8 3.1 6.5 98 - NNW 15 19 8 10 937.0 - 1.2
25/11:20pm 6.8 3.1 6.5 98 - NNW 15 20 8 11 937.0 - 1.0
25/11:10pm 6.9 3.2 6.5 97 - NNW 15 19 8 10 936.9 - 1.0
25/11:00pm 6.9 2.8 6.4 97 - NNW 17 20 9 11 936.7 - 1.0
25/10:50pm 7.0 2.9 6.4 96 - NNW 17 22 9 12 936.6 - 0.8
25/10:40pm 7.0 3.3 6.4 96 - NNW 15 20 8 11 936.6 - 0.8
25/10:30pm 7.1 2.6 6.3 95 - NNW 19 20 10 11 936.7 - 0.8
25/10:20pm 7.2 2.7 6.3 94 - NNW 19 20 10 11 936.7 - 0.8
25/10:10pm 7.2 3.1 6.4 95 - NNW 17 19 9 10 936.6 - 0.8
25/10:00pm 7.2 3.5 6.4 95 - NNW 15 19 8 10 936.8 - 0.8
25/09:50pm 7.2 2.7 6.3 94 - NNW 19 20 10 11 936.8 - 0.8
25/09:40pm 7.2 3.2 6.5 95 - NNW 17 20 9 11 936.8 - 0.8
25/09:30pm 7.2 2.8 6.5 95 - NNW 19 22 10 12 936.7 - 0.8
25/09:20pm 7.1 3.4 6.5 96 - NNW 15 17 8 9 936.7 - 0.8
25/09:10pm 7.1 3.1 6.5 96 - NNW 17 19 9 10 936.7 - 0.8
25/09:00pm 7.1 2.7 6.5 96 - NNW 19 22 10 12 936.6 - 0.8
25/08:50pm 7.1 2.7 6.5 96 - NNW 19 20 10 11 936.5 - 0.8
25/08:40pm 7.1 3.1 6.5 96 - NNW 17 22 9 12 936.4 - 0.8
25/08:30pm 7.2 3.2 6.5 95 - NNW 17 20 9 11 936.5 - 0.8
25/08:20pm 7.1 3.8 6.6 97 - NNW 13 17 7 9 936.5 - 0.8
25/08:10pm 7.0 3.4 6.6 97 - NNW 15 19 8 10 936.4 - 0.8
25/08:00pm 7.0 3.7 6.6 97 - NNW 13 15 7 8 936.4 - 0.8
25/07:50pm 7.0 3.7 6.6 97 - NNW 13 17 7 9 936.5 - 0.8
25/07:40pm 7.0 3.0 6.6 97 - NNW 17 20 9 11 936.4 - 0.8
25/07:30pm 7.0 2.6 6.5 97 - N 19 20 10 11 936.4 - 0.8
25/07:20pm 7.1 3.1 6.5 96 - N 17 20 9 11 936.4 - 0.8
25/07:10pm 7.1 2.7 6.4 95 - NNW 19 22 10 12 936.3 - 0.8
25/07:00pm 7.1 2.7 6.5 96 - N 19 20 10 11 936.1 - 0.8
25/06:50pm 7.1 3.1 6.5 96 - NNW 17 20 9 11 936.1 - 0.8
25/06:40pm 7.1 3.5 6.6 97 - NNW 15 19 8 10 936.2 - 0.8
25/06:30pm 7.2 3.6 6.6 96 - NNW 15 17 8 9 936.1 - 0.8
25/06:20pm 7.2 3.2 6.6 96 - NNW 17 20 9 11 935.9 - 0.8
25/06:10pm 7.1 3.1 6.6 97 - NNW 17 19 9 10 935.9 - 0.8
25/06:00pm 7.0 3.4 6.6 97 - NNW 15 17 8 9 935.8 - 0.8
25/05:50pm 6.9 4.0 6.5 97 - NNW 11 13 6 7 935.6 - 0.8
25/05:40pm 7.0 3.3 6.5 97 - NNW 15 20 8 11 935.5 - 0.8
25/05:30pm 7.2 4.0 6.7 97 - NNW 13 17 7 9 935.5 - 0.8
25/05:20pm 7.2 3.6 6.8 97 - NNW 15 19 8 10 935.6 - 0.8
25/05:10pm 7.2 3.6 6.8 97 - NNW 15 17 8 9 935.6 - 0.8
25/05:00pm 7.4 3.8 6.9 97 - NW 15 17 8 9 935.6 - 0.8
25/04:50pm 7.4 3.8 6.9 97 - NW 15 20 8 11 935.6 - 0.8
25/04:40pm 7.4 3.8 6.9 97 - NW 15 19 8 10 935.6 - 0.8
25/04:30pm 7.4 3.8 6.9 97 - NW 15 17 8 9 935.6 - 0.8
25/04:20pm 7.5 4.3 6.9 96 - NNW 13 17 7 9 935.7 - 0.6
25/04:10pm 7.7 3.8 6.9 95 - NW 17 20 9 11 935.7 - 0.6
25/04:00pm 7.8 4.3 7.0 95 - NW 15 19 8 10 935.7 - 0.6
25/03:50pm 7.7 4.5 7.0 95 - NNW 13 19 7 10 935.7 - 0.6
25/03:40pm 7.7 4.1 6.9 95 - NW 15 20 8 11 935.5 - 0.6
25/03:30pm 8.0 4.4 6.8 92 - NW 15 20 8 11 935.6 - 0.6
25/03:20pm 7.8 5.0 7.0 95 - NW 11 15 6 8 935.5 - 0.4
25/03:10pm 8.0 4.4 6.7 91 - NW 15 17 8 9 935.5 - 0.4
25/03:00pm 8.1 3.7 6.5 90 - NW 19 22 10 12 935.4 - 0.4
25/02:50pm 8.3 3.9 6.5 88 - NW 19 22 10 12 935.4 - 0.4
25/02:40pm 8.4 4.4 6.5 88 - NW 17 22 9 12 935.4 - 0.4
25/02:30pm 8.5 4.5 6.7 88 - NW 17 20 9 11 935.3 - 0.4
25/02:20pm 8.1 4.1 6.5 90 - WNW 17 24 9 13 935.3 - 0.4
25/02:10pm 8.5 3.2 6.8 89 - WNW 24 32 13 17 935.4 - 0.4
25/02:00pm 8.0 3.6 6.7 91 - WNW 19 24 10 13 935.4 - 0.4
25/01:50pm 7.7 3.7 6.6 93 - NW 17 26 9 14 935.4 - 0.4
25/01:40pm 8.0 4.0 6.8 92 - NW 17 20 9 11 935.5 - 0.4
25/01:30pm 8.2 4.2 6.6 90 - NW 17 20 9 11 935.4 - 0.4
25/01:20pm 8.0 3.6 6.4 90 - NW 19 22 10 12 935.6 - 0.4
25/01:10pm 7.4 3.0 6.4 93 - NW 19 28 10 15 935.7 - 0.4
25/01:00pm 7.6 3.2 6.5 93 - NW 19 22 10 12 935.7 - 0.4
25/12:50pm 7.4 2.9 6.3 93 - NW 19 20 10 11 935.8 - 0.4
25/12:40pm 7.3 2.8 6.1 92 - WNW 19 28 10 15 935.8 - 0.4
25/12:30pm 7.3 3.3 6.6 95 - NW 17 22 9 12 935.9 - 0.4
25/12:20pm 7.1 2.6 6.2 94 - NW 19 22 10 12 935.8 - 0.4
25/12:10pm 7.0 3.3 6.4 96 - NW 15 17 8 9 935.9 - 0.4
25/12:00pm 6.9 3.2 6.2 95 - NW 15 17 8 9 935.9 - 0.2
25/11:50am 6.8 2.7 6.2 96 - NW 17 19 9 10 936.0 - 0.2
25/11:40am 6.6 1.9 6.0 96 - NW 20 24 11 13 936.1 - 0.2
25/11:30am 6.7 2.6 6.2 97 - NW 17 20 9 11 936.2 - 0.2
25/11:20am 6.7 3.4 6.2 97 - NW 13 17 7 9 936.3 - 0.2
25/11:10am 6.6 2.5 6.1 97 - NW 17 22 9 12 936.3 - 0.2
25/11:00am 6.7 3.0 6.2 97 - NW 15 20 8 11 936.3 - 0.2
25/10:50am 6.3 2.2 6.0 98 - NW 17 19 9 10 936.3 - 0.2
25/10:40am 6.4 2.3 6.1 98 - NW 17 22 9 12 936.4 - 0.2
25/10:30am 6.4 2.7 6.1 98 - NW 15 17 8 9 936.3 - 0.2
25/10:20am 6.4 3.1 6.2 99 - NW 13 19 7 10 936.2 - 0.0
25/10:10am 6.2 2.4 6.0 99 - NW 15 22 8 12 936.2 - 0.0
25/10:00am 6.1 2.7 5.9 99 - NW 13 17 7 9 936.2 - 0.0
25/09:50am 6.0 2.2 5.8 99 - NW 15 17 8 9 936.1 - 0.0
25/09:40am 5.9 2.5 5.8 99 - NW 13 17 7 9 936.0 - 0.0
25/09:30am 5.9 2.1 5.7 99 - NW 15 20 8 11 935.8 - 0.0
25/09:20am 5.9 2.1 5.7 99 - NNW 15 19 8 10 935.7 - 0.0
25/09:10am 5.9 2.1 5.7 99 - NW 15 20 8 11 935.6 - 0.0
25/09:00am 5.9 2.1 5.7 99 - NW 15 20 8 11 935.5 - 0.4
25/08:50am 5.9 2.1 5.7 99 - NW 15 20 8 11 935.4 - 0.4
25/08:40am 5.9 2.1 5.7 99 - NNW 15 20 8 11 935.3 - 0.4
25/08:30am 5.9 2.5 5.7 99 - NNW 13 19 7 10 935.3 - 0.4
25/08:20am 5.9 2.1 5.7 99 - NNW 15 19 8 10 935.2 - 0.4
25/08:10am 5.8 2.3 5.6 99 - NW 13 15 7 8 935.0 - 0.4
25/08:00am 5.8 2.7 5.5 98 - NW 11 13 6 7 935.0 - 0.2
25/07:50am 5.8 2.7 5.4 97 - NNW 11 15 6 8 934.9 - 0.2
25/07:40am 5.7 2.2 5.4 98 - NNW 13 17 7 9 934.9 - 0.2
25/07:30am 5.7 2.5 5.3 97 - NNW 11 15 6 8 934.8 - 0.2
25/07:20am 5.7 2.2 5.3 97 - NW 13 17 7 9 934.9 - 0.2
25/07:10am 5.7 2.6 5.4 98 - NW 11 15 6 8 934.8 - 0.2
25/07:00am 5.7 2.5 5.3 97 - NW 11 15 6 8 934.8 - 0.2
25/06:50am 5.6 2.8 5.2 97 - NW 9 15 5 8 934.7 - 0.0
25/06:40am 5.5 2.3 5.1 97 - NNW 11 13 6 7 934.5 - 0.0
25/06:30am 5.5 2.3 5.1 97 - NNW 11 13 6 7 934.3 - 0.0
25/06:20am 5.5 2.7 5.0 97 - NNW 9 13 5 7 934.3 - 0.0
25/06:10am 5.5 2.3 5.1 97 - NW 11 17 6 9 934.3 - 0.0
25/05:50am 5.5 2.7 5.1 97 - NW 9 13 5 7 934.2 - 0.0
25/05:40am 5.5 2.7 5.1 97 - NW 9 13 5 7 934.0 - 0.0
25/05:30am 5.5 2.3 5.2 98 - NW 11 13 6 7 933.9 - 0.0
25/05:20am 5.5 1.5 5.1 97 - WNW 15 19 8 10 933.9 - 0.0
25/05:10am 5.5 1.6 5.2 98 - NW 15 19 8 10 933.7 - 0.0
25/05:00am 5.5 1.9 5.2 98 - WNW 13 17 7 9 933.6 - 0.0
25/04:50am 5.6 1.7 5.2 97 - NW 15 17 8 9 933.6 - 0.0
25/04:30am 5.4 1.8 4.8 96 - NW 13 19 7 10 933.4 - 0.0
25/04:20am 5.3 1.3 4.7 96 - WNW 15 20 8 11 933.4 - 0.0
25/04:10am 5.3 0.9 4.6 95 - WNW 17 19 9 10 933.4 - 0.0
25/04:00am 5.4 1.0 4.5 94 - WNW 17 20 9 11 933.3 - 0.0
25/03:50am 5.5 0.7 4.4 93 - WNW 19 20 10 11 933.2 - 0.0
25/03:40am 5.5 1.0 4.3 92 - WNW 17 20 9 11 933.2 - 0.0
25/03:30am 5.6 1.1 4.1 90 - WNW 17 20 9 11 933.2 - 0.0
25/03:20am 5.7 1.1 3.9 88 - WNW 17 20 9 11 933.1 - 0.0
25/03:10am 5.8 0.8 3.8 87 - WNW 19 22 10 12 933.2 - 0.0
25/03:00am 5.8 0.6 3.8 87 - WNW 20 22 11 12 933.1 - 0.0
25/02:50am 5.8 0.8 3.7 86 - WNW 19 20 10 11 933.1 - 0.0
25/02:40am 5.9 0.8 4.1 88 - WNW 20 24 11 13 933.0 - 0.0
25/02:30am 6.0 0.9 4.1 88 - WNW 20 22 11 12 933.0 - 0.0
25/02:20am 6.0 1.1 3.9 86 - NW 19 22 10 12 933.0 - 0.0
25/02:10am 6.0 1.4 3.7 85 - NW 17 20 9 11 932.9 - 0.0
25/02:00am 6.0 0.8 3.7 85 - WNW 20 26 11 14 932.9 - 0.0
25/01:50am 5.8 0.8 3.8 87 - WNW 19 22 10 12 933.0 - 0.0
25/01:40am 5.1 1.5 4.8 98 - NW 13 15 7 8 933.0 - 0.0
25/01:30am 4.4 1.4 4.3 99 - NW 9 13 5 7 933.0 - 0.0
25/01:20am 3.9 1.4 3.7 99 - N 6 7 3 4 933.1 - 0.0
25/01:10am 3.9 1.8 3.7 99 - N 4 6 2 3 933.1 - 0.0
25/01:00am 4.0 1.9 3.8 99 - N 4 6 2 3 933.2 - 0.0
25/12:50am 4.0 2.3 3.8 99 - NNE 2 4 1 2 933.3 - 0.0
25/12:40am 4.1 2.4 4.0 99 - N 2 4 1 2 933.4 - 0.0
25/12:30am 4.2 2.1 4.1 99 - N 4 6 2 3 933.4 - 0.0
25/12:20am 4.3 2.2 4.1 99 - NNW 4 6 2 3 933.4 - 0.0
25/12:10am 4.3 1.9 4.1 99 - N 6 7 3 4 933.5 - 0.0
25/12:00am 4.2 1.7 4.0 99 - N 6 7 3 4 933.5 - 0.0
 
Date/Time
EST
Temp
°C
App
Temp
°C
Dew
Point
°C
Rel
Hum
%
Delta-T
°C
Wind Press
QNH
hPa
Press
MSL
hPa
Rain since
9am
mm
Dir  Spd
km/h
Gust
km/h
Spd
kts
Gust
kts
24/11:50pm 4.2 2.1 4.0 99 - N 4 4 2 2 933.5 - 0.0
24/11:40pm 4.2 2.1 3.9 98 - N 4 6 2 3 933.6 - 0.0
24/11:30pm 4.6 2.6 4.2 97 - N 4 6 2 3 933.6 - 0.0
24/11:20pm 4.8 2.4 4.4 97 - NNW 6 6 3 3 933.7 - 0.0
24/11:10pm 4.9 2.5 4.5 97 - NW 6 7 3 4 933.6 - 0.0
24/11:00pm 4.9 2.9 4.4 97 - NW 4 6 2 3 933.6 - 0.0
24/10:50pm 5.1 3.1 4.5 96 - NNW 4 6 2 3 933.7 - 0.0
24/10:40pm 5.3 3.0 4.6 95 - NW 6 7 3 4 933.8 - 0.0
24/10:30pm 5.4 2.9 4.7 95 - WNW 7 11 4 6 933.6 - 0.0
24/10:20pm 5.5 3.0 4.8 95 - WNW 7 9 4 5 933.7 - 0.0
24/10:10pm 5.7 3.5 5.1 96 - NW 6 7 3 4 933.7 - 0.0
24/10:00pm 5.9 3.7 5.3 96 - NW 6 7 3 4 933.6 - 0.0
24/09:50pm 5.9 3.7 5.5 97 - NW 6 7 3 4 933.7 - 0.0
24/09:40pm 5.6 3.4 5.2 97 - NW 6 7 3 4 933.8 - 0.0
24/09:30pm 5.0 2.5 4.6 97 - WNW 7 7 4 4 933.8 - 0.0
24/09:20pm 5.0 3.0 4.5 97 - NW 4 6 2 3 933.8 - 0.0
24/09:10pm 5.3 3.4 4.9 97 - WNW 4 6 2 3 933.7 - 0.0
24/08:50pm 5.6 3.7 4.9 95 - NW 4 4 2 2 933.7 - 0.0
24/08:40pm 6.2 4.4 5.5 95 - NNW 4 4 2 2 933.8 - 0.0
24/08:30pm 6.3 4.1 5.5 95 - NNW 6 6 3 3 933.8 - 0.0
24/08:10pm 5.9 4.1 5.3 96 - NW 4 6 2 3 933.8 - 0.0
24/08:00pm 6.0 4.2 5.3 95 - NW 4 4 2 2 933.8 - 0.0
24/07:50pm 6.4 4.6 5.6 95 - N 4 4 2 2 933.7 - 0.0
24/07:40pm 6.5 5.1 5.7 95 - NNW 2 6 1 3 933.6 - 0.0
24/07:30pm 6.7 5.0 5.7 93 - NW 4 4 2 2 933.5 - 0.0
24/07:20pm 6.9 5.5 5.7 92 - NNW 2 6 1 3 933.5 - 0.0
24/07:10pm 7.0 5.3 5.8 92 - NNW 4 6 2 3 933.4 - 0.0
24/07:00pm 7.1 5.4 5.7 91 - NNW 4 6 2 3 933.3 - 0.0
24/06:50pm 7.1 5.3 5.6 90 - NNW 4 4 2 2 933.2 - 0.0
24/06:40pm 6.9 5.1 5.4 90 - NNW 4 4 2 2 933.1 - 0.0
24/06:30pm 6.7 4.9 5.2 90 - NW 4 6 2 3 933.0 - 0.0
24/06:20pm 6.4 4.5 4.9 90 - NW 4 6 2 3 933.0 - 0.0
24/06:10pm 6.5 4.6 4.8 89 - NNW 4 4 2 2 932.9 - 0.0
24/06:00pm 6.7 4.8 4.8 88 - NNW 4 6 2 3 932.8 - 0.0
24/05:50pm 7.2 4.9 4.8 85 - NW 6 6 3 3 932.7 - 0.0
24/05:40pm 7.7 5.8 5.1 83 - WNW 4 6 2 3 932.6 - 0.0
24/05:30pm 8.1 5.8 5.0 81 - WNW 6 7 3 4 932.5 - 0.0
24/05:20pm 8.2 5.9 4.8 79 - W 6 7 3 4 932.4 - 0.0
24/05:10pm 8.3 6.4 4.9 79 - W 4 4 2 2 932.3 - 0.0
24/05:00pm 8.9 6.6 5.0 76 - WNW 6 7 3 4 932.2 - 0.0
24/04:50pm 9.5 6.2 4.5 71 - W 11 15 6 8 932.2 - 0.0
24/04:40pm 9.7 7.1 4.1 68 - W 7 13 4 7 932.1 - 0.0
24/04:30pm 9.8 6.1 4.5 69 - W 13 17 7 9 932.1 - 0.0
24/04:20pm 9.6 5.9 4.6 71 - W 13 17 7 9 932.1 - 0.0
24/04:10pm 10.0 6.0 4.7 69 - WNW 15 17 8 9 932.2 - 0.0
24/04:00pm 10.2 7.0 5.2 71 - W 11 13 6 7 932.1 - 0.0
24/03:50pm 10.2 6.9 4.7 68 - W 11 15 6 8 932.1 - 0.0
24/03:40pm 9.9 7.1 5.3 73 - W 9 13 5 7 932.0 - 0.0
24/03:30pm 9.4 6.6 5.2 75 - WSW 9 13 5 7 931.9 - 0.0
24/03:20pm 9.5 6.7 5.1 74 - W 9 13 5 7 932.0 - 0.0
24/03:10pm 9.6 6.5 5.6 76 - W 11 19 6 10 931.9 - 0.0
24/03:00pm 9.9 6.1 5.7 75 - W 15 17 8 9 931.8 - 0.0
24/02:50pm 10.4 7.0 6.0 74 - W 13 17 7 9 931.8 - 0.0
24/02:40pm 10.1 6.6 5.4 72 - W 13 17 7 9 931.8 - 0.0
24/02:30pm 9.8 6.0 5.6 75 - W 15 19 8 10 931.7 - 0.0
24/02:20pm 9.2 5.7 5.4 77 - W 13 17 7 9 931.8 - 0.0
24/02:10pm 9.1 5.4 6.1 81 - WSW 15 19 8 10 931.7 - 0.0
24/02:00pm 9.5 5.8 6.1 79 - WSW 15 17 8 9 931.6 - 0.0
24/01:50pm 10.0 7.0 5.9 75 - W 11 13 6 7 931.6 - 0.0
24/01:40pm 9.7 5.3 4.9 72 - W 17 22 9 12 931.7 - 0.0
24/01:30pm 9.8 5.1 5.1 72 - WNW 19 22 10 12 931.6 - 0.0
24/01:20pm 10.1 5.2 5.1 71 - WNW 20 26 11 14 931.7 - 0.0
24/01:10pm 10.6 5.8 4.6 66 - W 19 26 10 14 931.6 - 0.0
24/01:00pm 11.1 6.6 4.1 62 - WSW 17 20 9 11 931.8 - 0.0
24/12:50pm 11.1 7.8 6.6 74 - WSW 13 20 7 11 931.8 - 0.0
24/12:40pm 10.2 6.8 5.7 73 - W 13 19 7 10 931.9 - 0.0
24/12:30pm 9.2 5.7 5.6 78 - W 13 19 7 10 932.0 - 0.0
24/12:20pm 9.3 6.4 6.3 81 - WSW 11 17 6 9 932.1 - 0.0
24/12:10pm 9.7 5.9 5.8 77 - WSW 15 20 8 11 932.0 - 0.0
24/12:00pm 9.5 5.7 6.0 79 - WSW 15 19 8 10 932.0 - 0.0
24/11:50am 8.8 5.9 6.5 85 - WSW 11 15 6 8 932.1 - 0.0
24/11:40am 8.9 5.7 7.0 88 - W 13 17 7 9 932.1 - 0.0
24/11:30am 8.8 5.6 6.9 88 - W 13 15 7 8 932.1 - 0.0
24/11:20am 8.6 5.3 6.4 86 - W 13 19 7 10 932.2 - 0.0
24/11:10am 8.6 4.9 6.3 85 - W 15 19 8 10 932.3 - 0.0
24/11:00am 8.7 5.4 6.2 84 - W 13 15 7 8 932.2 - 0.0
24/10:50am 8.7 5.6 5.7 81 - W 11 15 6 8 932.2 - 0.0
24/10:40am 8.7 5.3 5.9 82 - W 13 19 7 10 932.0 - 0.0
24/10:30am 8.6 5.2 5.8 82 - W 13 17 7 9 931.9 - 0.0
24/10:20am 8.5 5.0 5.6 82 - W 13 17 7 9 931.9 - 0.0
24/10:10am 8.4 4.9 5.6 82 - W 13 19 7 10 932.0 - 0.0
24/10:00am 8.3 5.7 5.9 85 - W 9 17 5 9 931.9 - 0.0
24/09:50am 8.2 5.6 6.0 86 - W 9 13 5 7 931.8 - 0.0
24/09:40am 8.2 4.8 6.1 87 - WSW 13 17 7 9 931.7 - 0.0
24/09:30am 8.2 4.8 6.0 86 - W 13 15 7 8 931.6 - 0.0
24/09:20am 8.1 5.2 6.3 88 - W 11 15 6 8 931.5 - 0.0
24/09:10am 8.0 4.3 6.2 88 - W 15 19 8 10 931.4 - 0.0
24/09:00am 8.0 4.7 6.5 90 - W 13 17 7 9 931.4 - 5.6
24/08:50am 7.9 4.3 6.9 93 - W 15 19 8 10 931.4 - 5.6
24/08:40am 7.9 3.9 6.8 93 - W 17 19 9 10 931.3 - 5.6
24/08:30am 7.9 4.3 6.8 93 - W 15 19 8 10 931.1 - 5.6
24/08:20am 7.9 4.3 6.6 91 - W 15 20 8 11 930.9 - 5.6
24/08:10am 7.8 4.6 6.8 93 - W 13 17 7 9 930.9 - 5.6
24/08:00am 7.6 4.0 6.9 95 - W 15 20 8 11 930.9 - 5.6
24/07:50am 7.4 4.7 7.2 99 - W 11 15 6 8 930.8 - 5.6
24/07:40am 7.4 3.9 7.2 99 - W 15 17 8 9 930.6 - 5.6
24/07:30am 7.3 3.4 7.2 99 - WNW 17 22 9 12 930.2 - 5.6
24/07:20am 7.3 2.8 7.1 99 - WNW 20 24 11 13 929.9 - 5.6
24/07:10am 7.2 3.3 6.9 98 - WNW 17 20 9 11 929.9 - 5.6
24/07:00am 7.2 3.3 6.9 98 - NW 17 20 9 11 929.8 - 5.6
24/06:50am 7.2 3.6 6.9 98 - NW 15 19 8 10 929.8 - 5.6
24/06:40am 7.2 3.3 6.9 98 - NW 17 20 9 11 929.8 - 5.6
24/06:30am 7.2 3.6 6.9 98 - NW 15 19 8 10 929.7 - 5.6
24/06:20am 7.2 4.0 6.9 98 - NW 13 15 7 8 929.7 - 5.4
24/06:10am 7.2 4.0 6.9 98 - NW 13 15 7 8 929.6 - 5.2
24/06:00am 7.3 3.7 6.8 97 - NW 15 19 8 10 929.4 - 5.0
24/05:50am 7.3 3.3 6.8 97 - NW 17 20 9 11 929.5 - 4.8
24/05:40am 7.3 3.3 6.7 96 - NW 17 22 9 12 929.5 - 4.2
24/05:30am 7.4 3.4 6.7 95 - NW 17 24 9 13 929.6 - 3.2
24/05:20am 7.5 3.1 6.7 95 - NW 19 24 10 13 929.7 - 2.4
24/05:10am 7.6 3.2 6.6 93 - NW 19 24 10 13 929.4 - 1.6
24/05:00am 7.6 3.6 6.5 93 - NW 17 20 9 11 929.2 - 1.2
24/04:50am 7.4 3.7 6.5 94 - NW 15 19 8 10 928.9 - 1.2
24/04:40am 7.4 3.8 6.6 95 - NW 15 19 8 10 929.0 - 1.2
24/04:30am 7.4 3.4 6.6 95 - NW 17 19 9 10 928.9 - 1.2
24/04:10am 7.7 3.7 6.8 94 - NW 17 19 9 10 929.2 - 0.8
24/04:00am 7.9 3.9 6.7 92 - NW 17 20 9 11 929.3 - 0.6
24/03:50am 7.9 3.9 6.7 92 - NW 17 20 9 11 929.4 - 0.6
24/03:40am 8.0 3.7 6.8 92 - NW 19 20 10 11 929.8 - 0.4
24/03:30am 8.1 4.1 6.7 91 - NW 17 22 9 12 929.6 - 0.4
24/03:20am 8.1 4.1 6.7 91 - NW 17 20 9 11 929.7 - 0.2
24/03:10am 8.1 4.1 6.7 91 - NW 17 24 9 13 929.7 - 0.2
24/03:00am 8.2 4.2 6.7 90 - NW 17 20 9 11 929.7 - 0.2
24/02:50am 8.3 4.3 6.8 90 - NW 17 19 9 10 929.9 - 0.2
24/02:40am 8.4 3.8 6.6 88 - NW 20 26 11 14 929.9 - 0.2
24/02:30am 8.5 3.9 6.7 88 - NW 20 26 11 14 929.9 - 0.0
24/02:20am 8.5 3.9 6.7 88 - NW 20 26 11 14 930.0 - 0.0
24/02:10am 8.6 3.7 6.7 88 - NW 22 24 12 13 929.8 - 0.0
24/02:00am 8.6 3.7 6.7 88 - NW 22 28 12 15 929.9 - 0.0
24/01:50am 8.5 3.9 6.7 88 - NW 20 24 11 13 929.9 - 0.0
24/01:40am 8.4 3.5 6.8 90 - NW 22 26 12 14 930.0 - 0.0
24/01:30am 8.4 3.5 6.9 90 - NW 22 28 12 15 930.1 - 0.0
24/01:20am 8.5 4.0 7.0 90 - NW 20 24 11 13 930.2 - 0.0
24/01:10am 8.5 4.0 7.0 90 - NW 20 26 11 14 930.5 - 0.0
24/01:00am 8.6 3.3 6.9 89 - NW 24 30 13 16 930.5 - 0.0
24/12:50am 8.6 3.7 7.0 90 - NW 22 28 12 15 930.6 - 0.0
24/12:40am 8.6 3.7 7.0 90 - NW 22 28 12 15 930.6 - 0.0
24/12:30am 8.5 4.0 6.9 90 - NNW 20 24 11 13 930.7 - 0.0
24/12:20am 8.5 4.0 7.0 90 - NNW 20 26 11 14 930.8 - 0.0
24/12:10am 8.5 4.2 7.0 90 - NNW 19 24 10 13 931.0 - 0.0
24/12:00am 8.4 4.1 6.9 90 - NNW 19 24 10 13 931.0 - 0.0
 
Date/Time
EST
Temp
°C
App
Temp
°C
Dew
Point
°C
Rel
Hum
%
Delta-T
°C
Wind Press
QNH
hPa
Press
MSL
hPa
Rain since
9am
mm
Dir  Spd
km/h
Gust
km/h
Spd
kts
Gust
kts
23/11:50pm 8.4 3.5 6.9 90 - NNW 22 28 12 15 931.0 - 0.0
23/11:40pm 8.5 3.6 7.0 90 - NNW 22 24 12 13 931.2 - 0.0
23/11:30pm 8.5 3.6 7.0 90 - NNW 22 28 12 15 931.4 - 0.0
23/11:20pm 8.5 4.2 7.2 91 - NNW 19 28 10 15 931.7 - 0.0
23/11:10pm 8.5 3.7 7.2 91 - NNW 22 26 12 14 931.7 - 0.0
23/11:00pm 8.5 3.7 7.3 92 - NNW 22 28 12 15 931.7 - 0.0
23/10:50pm 8.4 4.0 7.4 93 - NNW 20 22 11 12 931.6 - 0.0
23/10:40pm 8.5 4.1 7.6 94 - NNW 20 22 11 12 931.7 - 0.0
23/10:30pm 8.6 3.5 7.7 94 - NNW 24 30 13 16 932.0 - 0.0
23/10:20pm 8.6 3.9 7.8 95 - NNW 22 26 12 14 932.2 - 0.0
23/10:10pm 8.7 3.7 7.9 95 - NNW 24 28 13 15 932.0 - 0.0
23/10:00pm 8.8 4.1 7.9 94 - NNW 22 28 12 15 932.3 - 0.0
23/09:50pm 8.8 5.1 7.9 94 - NNW 17 20 9 11 932.5 - 0.0
23/09:40pm 8.8 4.1 7.9 94 - NNW 22 26 12 14 932.7 - 0.0
23/09:30pm 8.8 4.5 8.0 95 - NNW 20 22 11 12 932.6 - 0.0
23/09:20pm 8.9 4.6 8.0 94 - NNW 20 22 11 12 932.8 - 0.0
23/09:10pm 8.9 4.3 8.1 95 - NNW 22 24 12 13 932.6 - 0.0
23/09:00pm 8.9 3.9 8.1 95 - NNW 24 28 13 15 932.8 - 0.0
23/08:50pm 9.0 4.8 8.3 95 - N 20 22 11 12 933.0 - 0.0
23/08:40pm 9.1 4.2 8.3 95 - N 24 30 13 16 933.0 - 0.0

Other formats

Comma delimited format used in spreadsheet applications
http://www.bom.gov.au/fwo/IDV60801/IDV60801.99821.axf

JavaScript Object Notation format (JSON) in row-major order
http://www.bom.gov.au/fwo/IDV60801/IDV60801.99821.json

Data quality

Most of these data are generated automatically and are frequently updated. Quality checks on data are not normally performed. It is possible for incorrect values to appear. Refer to information at About Latest Weather Observations and please check the disclaimer before using these data.